Lenexa, Kansas
Current Conditions -  °F | °C
As of 12:53 PM on Friday 24 Oct 2014 (Local Time) from KOJC Reporting Station
Clear Clear  
Wind Chill: 71°   Ceiling: Unl
Heat Index: 71°   Visibility: 10mi
Dew Point: 62°   Wind: 9mph
Humidity: 73%   Direction: 200°SSW
Pressure: 30.03"   Gusts: NA
Location:  38.96°N, 94.74°W
Report Text: KOJC 241753Z 20008KT 10SM CLR 22/17 A3003 RMK AO2 SLP162 T02170167 10217 20117 58009
Loading
Personal Weather Stations






























Interactive Weather Map
Tropical Storm Tracking
New forecast layout! Learn more

10-Day Weather Forecast

Advertisements
Track Severe Weather on mobile